Time;durP1;ratioP1;P1;durP2;ratioP2;P2;SDS_P1;SDS_P2;PMS_P1;PMS_P2;Temp;Humidity;BMP_temperature;BMP_pressure;BME280_temperature;BME280_humidity;BME280_pressure;Samples;Min_cycle;Max_cycle;Signal;HPM_P1;HPM_P2
2021/07/25 00:01:06;;;;;;;17.23;15.50;;;;;;;21.56;67.04;100356.06;5059546;28;20185;-66
2021/07/25 00:03:31;;;;;;;17.37;15.80;;;;;;;21.60;67.01;100361.16;5060947;28;20170;-66
2021/07/25 00:05:57;;;;;;;16.10;14.60;;;;;;;22.05;66.13;100361.88;5060595;28;20606;-67
2021/07/25 00:08:22;;;;;;;16.50;15.00;;;;;;;21.35;68.03;100355.97;5060483;28;20180;-65
2021/07/25 00:10:48;;;;;;;16.57;15.07;;;;;;;21.50;67.56;100360.66;5061048;28;20166;-66
2021/07/25 00:13:15;;;;;;;16.80;15.30;;;;;;;21.89;65.97;100359.03;5060319;28;20256;-68
2021/07/25 00:15:41;;;;;;;17.63;15.80;;;;;;;22.47;64.28;100352.06;5060347;28;20186;-67
2021/07/25 00:18:08;;;;;;;16.63;15.13;;;;;;;22.15;64.60;100357.91;5060779;28;20797;-66
2021/07/25 00:20:33;;;;;;;16.93;15.43;;;;;;;22.73;62.36;100356.16;5059876;28;20223;-66
2021/07/25 00:22:59;;;;;;;17.13;15.63;;;;;;;22.45;62.99;100354.81;5060073;28;20463;-67
2021/07/25 00:25:25;;;;;;;16.80;15.10;;;;;;;22.27;63.52;100347.63;5060804;28;20453;-66
2021/07/25 00:27:57;;;;;;;16.87;15.33;;;;;;;22.41;63.27;100341.72;5060283;28;20470;-67
2021/07/25 00:30:24;;;;;;;16.57;15.00;;;;;;;22.17;63.32;100345.41;5060184;28;20270;-66
2021/07/25 00:32:49;;;;;;;16.87;15.17;;;;;;;22.97;61.20;100350.63;5060424;28;20476;-66
2021/07/25 00:35:17;;;;;;;16.23;14.67;;;;;;;22.88;61.29;100354.59;5060091;28;20478;-67
2021/07/25 00:37:43;;;;;;;17.03;15.23;;;;;;;22.65;61.95;100351.22;5060071;28;20215;-65
2021/07/25 00:40:15;;;;;;;16.13;14.53;;;;;;;22.75;61.71;100341.00;5060232;28;20418;-67
2021/07/25 00:42:40;;;;;;;15.57;14.17;;;;;;;22.54;61.84;100342.88;5059654;28;20774;-67
2021/07/25 00:45:06;;;;;;;16.63;15.13;;;;;;;22.74;61.26;100336.63;5059730;28;20467;-66
2021/07/25 00:47:33;;;;;;;17.67;15.43;;;;;;;22.71;61.18;100344.75;5060082;28;20161;-67
2021/07/25 00:49:58;;;;;;;15.97;14.53;;;;;;;22.43;61.97;100343.38;5059702;28;20821;-67
2021/07/25 00:52:23;;;;;;;15.20;13.90;;;;;;;22.43;61.88;100346.03;5059522;28;20420;-68
2021/07/25 00:54:49;;;;;;;15.17;13.83;;;;;;;22.10;62.76;100351.91;5059988;28;20161;-67
2021/07/25 00:57:14;;;;;;;16.13;14.53;;;;;;;22.57;61.22;100352.50;5058519;28;20170;-68
2021/07/25 00:59:39;;;;;;;14.50;13.20;;;;;;;22.45;61.24;100348.66;5059370;28;20200;-67
2021/07/25 01:02:04;;;;;;;15.60;14.20;;;;;;;22.41;61.62;100358.53;5059686;28;20178;-68
2021/07/25 01:04:39;;;;;;;15.00;13.63;;;;;;;21.96;63.04;100346.34;5059024;28;20543;-68
2021/07/25 01:07:16;;;;;;;16.03;14.50;;;;;;;21.85;63.43;100346.81;5058657;28;20179;-68
2021/07/25 01:10:03;;;;;;;16.50;15.00;;;;;;;22.03;62.59;100338.06;5059033;28;20696;-66
2021/07/25 01:12:38;;;;;;;16.40;14.87;;;;;;;22.46;61.64;100342.38;5057803;28;20491;-66
2021/07/25 01:15:04;;;;;;;15.67;14.27;;;;;;;21.71;63.70;100331.50;5059139;28;20415;-66
2021/07/25 01:17:34;;;;;;;15.77;14.37;;;;;;;21.51;64.37;100327.91;5058372;28;20438;-66
2021/07/25 01:20:05;;;;;;;15.70;14.27;;;;;;;21.77;63.56;100319.75;5059086;28;20412;-65
2021/07/25 01:22:34;;;;;;;16.67;14.90;;;;;;;21.90;63.15;100315.66;5058811;28;20516;-66
2021/07/25 01:25:00;;;;;;;15.77;14.20;;;;;;;21.99;62.93;100319.69;5058503;28;20467;-66
2021/07/25 01:27:47;;;;;;;14.70;13.40;;;;;;;21.71;64.10;100320.91;5058528;28;20423;-65
2021/07/25 01:30:20;;;;;;;15.70;14.30;;;;;;;22.21;62.38;100324.88;5057006;28;20419;-66
2021/07/25 01:32:46;;;;;;;15.27;13.87;;;;;;;22.16;62.22;100311.84;5038934;28;20452;-65
2021/07/25 01:35:15;;;;;;;16.17;14.47;;;;;;;21.78;63.11;100316.19;5039086;28;20444;-65
2021/07/25 01:37:41;;;;;;;17.03;15.43;;;;;;;21.91;63.16;100316.53;5038995;28;20203;-66
2021/07/25 01:40:11;;;;;;;16.13;14.53;;;;;;;21.62;64.20;100321.28;5039340;28;20510;-65
2021/07/25 01:42:36;;;;;;;16.20;14.60;;;;;;;22.24;61.86;100321.22;5038826;28;20424;-65
2021/07/25 01:45:03;;;;;;;15.60;14.10;;;;;;;22.07;62.72;100322.88;5038891;28;20461;-65
2021/07/25 01:47:29;;;;;;;15.97;14.53;;;;;;;21.98;62.91;100328.59;5039497;28;20440;-65
2021/07/25 01:49:54;;;;;;;16.60;15.10;;;;;;;22.32;61.85;100325.25;5038962;28;20807;-65
2021/07/25 01:52:20;;;;;;;15.40;14.00;;;;;;;21.68;63.59;100334.31;5038801;28;20503;-65
2021/07/25 01:54:45;;;;;;;16.83;15.23;;;;;;;21.59;64.21;100332.06;5039143;28;20185;-66
2021/07/25 01:57:10;;;;;;;16.67;15.17;;;;;;;21.71;64.07;100331.50;5038686;28;20491;-65
2021/07/25 01:59:35;;;;;;;16.93;14.90;;;;;;;21.90;63.30;100347.50;5038481;28;20174;-64
2021/07/25 02:02:01;;;;;;;16.67;14.80;;;;;;;21.67;64.25;100352.00;5039369;28;20166;-64
2021/07/25 02:04:26;;;;;;;16.63;14.77;;;;;;;21.80;63.90;100349.69;5038309;28;20182;-64
2021/07/25 02:06:51;;;;;;;18.57;15.10;;;;;;;21.74;64.30;100352.59;5038590;28;20166;-64
2021/07/25 02:09:17;;;;;;;16.57;14.90;;;;;;;21.52;64.72;100345.53;5038941;28;20175;-64
2021/07/25 02:11:42;;;;;;;16.83;15.13;;;;;;;21.84;63.76;100342.47;5038496;28;20166;-64
2021/07/25 02:14:08;;;;;;;16.93;15.40;;;;;;;22.01;63.80;100339.06;5038415;28;20178;-65
2021/07/25 02:16:35;;;;;;;17.70;16.00;;;;;;;21.49;65.06;100342.16;5038681;28;20165;-65
2021/07/25 02:19:00;;;;;;;15.90;14.47;;;;;;;22.05;63.18;100351.25;5038286;28;20417;-66
2021/07/25 02:21:26;;;;;;;20.27;15.40;;;;;;;21.44;65.38;100350.28;5038302;28;20679;-66
2021/07/25 02:23:51;;;;;;;16.93;15.43;;;;;;;21.04;66.94;100349.31;5037380;28;20457;-65
2021/07/25 02:26:16;;;;;;;16.30;14.70;;;;;;;22.28;62.63;100352.88;5038038;28;20249;-66
2021/07/25 02:28:41;;;;;;;17.30;15.70;;;;;;;21.26;65.99;100351.94;5038555;28;20452;-65
2021/07/25 02:31:07;;;;;;;17.43;15.60;;;;;;;21.65;65.31;100353.88;5038094;28;20177;-65
2021/07/25 02:33:32;;;;;;;17.93;16.23;;;;;;;21.89;64.41;100351.06;5038101;28;20251;-65
2021/07/25 02:35:57;;;;;;;17.37;15.87;;;;;;;22.10;63.41;100356.38;5038654;28;20178;-65
2021/07/25 02:38:23;;;;;;;16.97;15.40;;;;;;;21.95;64.15;100352.63;5038114;28;20170;-65
2021/07/25 02:40:48;;;;;;;18.43;16.63;;;;;;;21.32;66.54;100361.41;5038025;28;20228;-65
2021/07/25 02:43:14;;;;;;;19.97;18.17;;;;;;;22.03;64.06;100359.28;5038402;28;20590;-65
2021/07/25 02:45:39;;;;;;;17.27;15.63;;;;;;;21.98;64.45;100352.47;5037107;28;20541;-65
2021/07/25 02:48:05;;;;;;;21.67;17.20;;;;;;;21.86;64.70;100367.13;5038077;28;20622;-65
2021/07/25 02:50:30;;;;;;;18.27;16.57;;;;;;;21.97;64.20;100372.81;5038173;28;20190;-65
2021/07/25 02:52:56;;;;;;;18.20;16.33;;;;;;;21.95;64.29;100380.00;5037806;28;20178;-64
2021/07/25 02:55:21;;;;;;;17.50;15.77;;;;;;;21.69;65.44;100392.59;5037919;28;20213;-65
2021/07/25 02:57:46;;;;;;;18.50;16.87;;;;;;;21.26;66.75;100385.53;5038538;28;20170;-65
2021/07/25 03:00:12;;;;;;;17.07;15.57;;;;;;;21.44;66.24;100378.63;5037794;28;20428;-65
2021/07/25 03:02:38;;;;;;;18.30;16.70;;;;;;;21.10;67.49;100386.16;5037642;28;20178;-65
2021/07/25 03:05:04;;;;;;;17.10;15.50;;;;;;;21.51;65.84;100391.56;5038227;28;20696;-65
2021/07/25 03:07:29;;;;;;;19.50;17.63;;;;;;;21.85;64.97;100397.25;5037576;28;20253;-65
2021/07/25 03:09:55;;;;;;;18.57;16.87;;;;;;;21.59;66.16;100401.00;5037744;28;20500;-65
2021/07/25 03:12:20;;;;;;;17.60;15.90;;;;;;;21.46;66.40;100395.31;5037391;28;20253;-65
2021/07/25 03:14:45;;;;;;;18.63;16.67;;;;;;;21.89;65.29;100392.69;5037540;28;20228;-65
2021/07/25 03:17:11;;;;;;;18.60;16.80;;;;;;;22.17;64.22;100398.50;5037626;28;20174;-66
2021/07/25 03:19:36;;;;;;;18.73;16.87;;;;;;;21.58;65.90;100402.81;5037986;28;20224;-66
2021/07/25 03:22:04;;;;;;;19.80;17.90;;;;;;;21.63;66.13;100397.31;5037280;28;20604;-66
2021/07/25 03:24:30;;;;;;;19.20;17.27;;;;;;;21.93;65.16;100394.28;5037321;28;20175;-64
2021/07/25 03:26:55;;;;;;;19.70;17.80;;;;;;;21.66;66.09;100403.34;5038018;28;20470;-65
2021/07/25 03:29:20;;;;;;;19.80;18.10;;;;;;;21.91;65.39;100404.09;5037433;28;20253;-65
2021/07/25 03:31:46;;;;;;;21.23;19.20;;;;;;;21.52;67.39;100413.63;5037444;28;20486;-66
2021/07/25 03:34:11;;;;;;;19.53;17.70;;;;;;;21.91;65.88;100410.25;5038108;28;20177;-66
2021/07/25 03:36:37;;;;;;;20.77;18.60;;;;;;;21.32;68.26;100412.66;5041206;28;20174;-66
2021/07/25 03:39:02;;;;;;;21.40;19.30;;;;;;;21.61;66.47;100407.97;5041342;28;20528;-66
2021/07/25 03:41:27;;;;;;;20.80;18.90;;;;;;;21.69;67.63;100408.53;5041698;28;20442;-66
2021/07/25 03:43:53;;;;;;;21.50;19.40;;;;;;;21.32;68.17;100417.09;5040928;28;20262;-65
2021/07/25 03:46:18;;;;;;;22.30;20.10;;;;;;;21.60;67.45;100413.34;5040860;28;20245;-65
2021/07/25 03:48:43;;;;;;;22.17;20.07;;;;;;;21.42;68.15;100426.41;5041297;28;20178;-64
2021/07/25 03:51:10;;;;;;;22.10;20.10;;;;;;;21.55;67.55;100418.84;5041114;28;20216;-64
2021/07/25 03:53:35;;;;;;;22.40;20.40;;;;;;;22.05;65.98;100412.31;5040765;28;20170;-64
2021/07/25 03:56:01;;;;;;;23.37;20.87;;;;;;;21.99;66.38;100431.19;5041096;28;20420;-64
2021/07/25 03:58:26;;;;;;;23.30;21.20;;;;;;;22.00;66.08;100427.56;5040738;28;20198;-66
2021/07/25 04:00:51;;;;;;;23.50;21.20;;;;;;;21.19;69.71;100430.84;5040825;28;20170;-65
2021/07/25 04:03:17;;;;;;;23.17;20.77;;;;;;;21.89;66.70;100429.84;5041150;28;20232;-65
2021/07/25 04:05:42;;;;;;;25.13;22.80;;;;;;;21.24;69.16;100432.44;5040800;28;20210;-65
2021/07/25 04:08:11;;;;;;;24.20;21.93;;;;;;;21.72;68.40;100427.88;5040814;28;20174;-65
2021/07/25 04:10:43;;;;;;;28.23;25.37;;;;;;;20.86;71.13;100431.25;5041274;28;20167;-65
2021/07/25 04:13:10;;;;;;;28.83;25.70;;;;;;;21.36;69.81;100426.66;5040616;28;20417;-65
2021/07/25 04:15:40;;;;;;;28.80;25.80;;;;;;;21.88;67.56;100434.28;5040656;28;20654;-65
2021/07/25 04:18:05;;;;;;;27.67;24.97;;;;;;;21.48;68.90;100444.72;5040679;28;20428;-64
2021/07/25 04:20:30;;;;;;;30.57;27.67;;;;;;;21.39;70.23;100436.28;5040601;28;20689;-65
2021/07/25 04:22:56;;;;;;;26.53;24.00;;;;;;;21.89;68.25;100435.13;5040317;28;20261;-65
2021/07/25 04:25:21;;;;;;;31.57;28.50;;;;;;;21.61;68.84;100437.16;5040475;28;20555;-66
2021/07/25 04:27:47;;;;;;;29.97;27.07;;;;;;;21.02;71.09;100447.41;5040720;28;20186;-66
2021/07/25 04:30:13;;;;;;;30.90;27.80;;;;;;;21.80;68.77;100437.25;5040366;28;20174;-65
2021/07/25 04:32:38;;;;;;;30.20;27.30;;;;;;;21.68;68.64;100440.44;5039997;28;20170;-65
2021/07/25 04:35:07;;;;;;;33.10;30.00;;;;;;;21.86;68.09;100438.78;5040832;28;20408;-67
2021/07/25 04:37:34;;;;;;;31.27;28.00;;;;;;;21.67;68.90;100444.00;5040160;28;20166;-66
2021/07/25 04:39:59;;;;;;;31.03;28.07;;;;;;;21.83;68.15;100445.09;5040076;28;20500;-66
2021/07/25 04:42:26;;;;;;;33.60;30.20;;;;;;;21.30;70.60;100450.78;5040321;28;20444;-66
2021/07/25 04:44:59;;;;;;;33.23;29.93;;;;;;;21.06;70.61;100450.81;5039867;28;20285;-66
2021/07/25 04:47:33;;;;;;;31.43;28.27;;;;;;;21.51;69.34;100457.00;5038559;28;20448;-66
2021/07/25 04:50:13;;;;;;;30.17;27.27;;;;;;;21.94;67.76;100446.44;5039756;28;20420;-67
2021/07/25 04:52:40;;;;;;;32.60;29.20;;;;;;;21.28;70.00;100450.81;5039701;28;20783;-66
2021/07/25 04:55:10;;;;;;;32.87;29.00;;;;;;;22.58;65.08;100445.41;5039743;28;20409;-65
2021/07/25 04:57:43;;;;;;;31.20;28.10;;;;;;;22.88;63.98;100444.97;5039767;28;20463;-66
2021/07/25 05:00:14;;;;;;;30.27;27.47;;;;;;;23.18;63.32;100455.97;5039754;28;20420;-66
2021/07/25 05:02:40;;;;;;;30.33;27.43;;;;;;;22.34;65.92;100460.66;5039521;28;20412;-66
2021/07/25 05:05:07;;;;;;;30.93;28.17;;;;;;;23.18;63.15;100463.09;5039794;28;20453;-66
2021/07/25 05:07:35;;;;;;;29.00;26.20;;;;;;;23.68;61.07;100454.44;5039485;28;20852;-66
2021/07/25 05:10:01;;;;;;;29.67;26.77;;;;;;;24.97;57.68;100446.00;5039623;28;20452;-66
2021/07/25 05:12:27;;;;;;;27.60;25.00;;;;;;;24.96;56.55;100449.59;5039749;28;20413;-66
2021/07/25 05:15:02;;;;;;;29.30;26.50;;;;;;;25.05;56.28;100461.59;5039277;28;20166;-66
2021/07/25 05:17:47;;;;;;;28.00;25.37;;;;;;;25.01;56.12;100457.38;5038629;28;20417;-66
2021/07/25 05:20:16;;;;;;;29.17;26.37;;;;;;;24.33;58.01;100475.16;5038712;28;20420;-66
2021/07/25 05:22:49;;;;;;;30.10;27.33;;;;;;;24.40;57.90;100467.69;5038406;28;20865;-67
2021/07/25 05:25:16;;;;;;;29.50;26.70;;;;;;;24.55;57.97;100477.53;5039134;28;20740;-67
2021/07/25 05:27:44;;;;;;;28.50;25.50;;;;;;;24.19;58.45;100473.22;5038542;28;20419;-67
2021/07/25 05:30:12;;;;;;;27.73;25.23;;;;;;;23.65;60.47;100480.34;5038495;28;20425;-67
2021/07/25 05:32:38;;;;;;;28.23;25.53;;;;;;;25.28;55.38;100464.78;5038997;28;20515;-66
2021/07/25 05:35:04;;;;;;;27.37;24.77;;;;;;;26.36;51.90;100469.22;5039506;28;20496;-66
2021/07/25 05:37:29;;;;;;;25.43;23.23;;;;;;;25.34;54.00;100480.47;5039113;28;20170;-67
2021/07/25 05:39:54;;;;;;;24.87;22.67;;;;;;;26.48;51.47;100473.81;5039040;28;20197;-66
2021/07/25 05:42:20;;;;;;;25.73;23.37;;;;;;;26.82;49.64;100473.53;5039405;28;20162;-66
2021/07/25 05:44:45;;;;;;;25.20;23.00;;;;;;;26.33;51.14;100480.06;5038559;28;20206;-66
2021/07/25 05:47:10;;;;;;;24.30;22.00;;;;;;;26.58;50.52;100479.44;5038720;28;20251;-66
2021/07/25 05:49:35;;;;;;;25.30;22.90;;;;;;;26.93;49.38;100473.75;5039151;28;20516;-66
2021/07/25 05:52:01;;;;;;;24.83;22.33;;;;;;;27.57;47.91;100486.59;5038630;28;20198;-66
2021/07/25 05:54:26;;;;;;;23.67;21.53;;;;;;;28.10;46.15;100480.47;5038528;28;20228;-66
2021/07/25 05:56:51;;;;;;;23.50;21.50;;;;;;;28.51;45.14;100484.78;5039171;28;20205;-66
2021/07/25 05:59:17;;;;;;;22.63;20.63;;;;;;;28.13;45.98;100480.25;5038586;28;20174;-66
2021/07/25 06:01:43;;;;;;;22.37;20.50;;;;;;;29.10;44.03;100486.03;5038432;28;20178;-65
2021/07/25 06:04:08;;;;;;;21.63;19.67;;;;;;;28.12;44.85;100487.44;5038726;28;20213;-66
2021/07/25 06:06:34;;;;;;;20.97;19.07;;;;;;;29.54;42.53;100476.56;5038300;28;20520;-66
2021/07/25 06:08:59;;;;;;;21.33;19.47;;;;;;;28.33;45.38;100478.88;5038363;28;20178;-67
2021/07/25 06:11:25;;;;;;;21.10;19.20;;;;;;;29.85;41.70;100482.28;5038965;28;20166;-66
2021/07/25 06:13:51;;;;;;;20.93;19.20;;;;;;;29.96;41.55;100490.44;5038170;28;20252;-66
2021/07/25 06:16:16;;;;;;;19.90;18.20;;;;;;;30.86;39.46;100478.97;5038180;28;20543;-67
2021/07/25 06:18:45;;;;;;;20.77;18.83;;;;;;;28.31;44.89;100480.81;5038512;28;20409;-67
2021/07/25 06:21:11;;;;;;;20.73;18.90;;;;;;;28.65;44.33;100490.06;5038293;28;20166;-66
2021/07/25 06:23:36;;;;;;;19.43;17.60;;;;;;;30.11;41.53;100485.72;5037804;28;20587;-66
2021/07/25 06:26:01;;;;;;;20.63;18.47;;;;;;;29.89;41.44;100487.38;5038403;28;20579;-67
2021/07/25 06:28:28;;;;;;;18.80;17.20;;;;;;;30.45;39.99;100484.97;5037861;28;20473;-66
2021/07/25 06:30:53;;;;;;;17.93;16.43;;;;;;;29.09;43.87;100495.03;5037973;28;20417;-66
2021/07/25 06:33:18;;;;;;;17.73;16.33;;;;;;;29.73;42.23;100497.53;5038400;28;20174;-67
2021/07/25 06:35:44;;;;;;;18.93;17.13;;;;;;;31.27;38.32;100494.63;5038063;28;20178;-67
2021/07/25 06:38:13;;;;;;;17.37;15.87;;;;;;;31.49;38.04;100497.25;5037879;28;20224;-67
2021/07/25 06:40:46;;;;;;;16.10;14.80;;;;;;;31.91;37.16;100497.38;5038349;28;20198;-67
2021/07/25 06:43:12;;;;;;;16.07;14.67;;;;;;;31.20;38.27;100499.66;5037611;28;20413;-66
2021/07/25 06:45:37;;;;;;;15.90;14.63;;;;;;;32.51;35.69;100499.50;5037048;28;20609;-66
2021/07/25 06:48:03;;;;;;;15.77;14.43;;;;;;;30.21;39.60;100508.22;5038227;28;20173;-66
2021/07/25 06:50:30;;;;;;;17.67;16.07;;;;;;;30.73;39.34;100502.50;5037777;28;20209;-67
2021/07/25 06:52:56;;;;;;;18.17;16.60;;;;;;;30.93;39.42;100500.03;5037646;28;20170;-65
2021/07/25 06:55:30;;;;;;;16.30;14.83;;;;;;;31.45;38.18;100501.19;5038234;28;20791;-65
2021/07/25 06:57:56;;;;;;;17.50;16.00;;;;;;;31.84;37.51;100506.97;5037733;28;20478;-67
2021/07/25 07:00:21;;;;;;;17.40;15.67;;;;;;;32.61;35.61;100509.50;5037867;28;20802;-66
2021/07/25 07:02:51;;;;;;;17.00;15.67;;;;;;;32.03;36.59;100510.81;5037515;28;20166;-67
2021/07/25 07:05:17;;;;;;;16.23;14.93;;;;;;;30.26;40.51;100518.63;5037592;28;20240;-70
2021/07/25 07:07:45;;;;;;;16.30;15.00;;;;;;;30.98;38.29;100516.66;5038121;28;20452;-69
2021/07/25 07:10:10;;;;;;;16.30;14.83;;;;;;;32.47;36.27;100508.00;5040110;28;20459;-70
2021/07/25 07:12:35;;;;;;;17.53;16.23;;;;;;;31.06;38.03;100514.25;5041383;28;20508;-69
2021/07/25 07:15:06;;;;;;;16.93;15.43;;;;;;;29.73;41.17;100521.72;5041791;28;20551;-69
2021/07/25 07:17:31;;;;;;;15.20;14.00;;;;;;;30.80;38.94;100516.31;5041522;28;20173;-67
2021/07/25 07:19:56;;;;;;;16.23;15.00;;;;;;;31.43;37.72;100518.47;5041545;28;20416;-67
2021/07/25 07:22:29;;;;;;;16.97;15.57;;;;;;;30.35;40.01;100517.06;5041668;28;20502;-67
2021/07/25 07:24:55;;;;;;;16.57;14.90;;;;;;;30.84;39.06;100517.78;5041271;28;20209;-67
2021/07/25 07:27:21;;;;;;;16.10;14.93;;;;;;;32.07;36.40;100509.56;5040735;28;20413;-67
2021/07/25 07:29:46;;;;;;;16.43;15.07;;;;;;;30.94;38.08;100512.50;5041402;28;20304;-66
2021/07/25 07:32:11;;;;;;;16.80;15.50;;;;;;;30.84;39.23;100515.94;5041414;28;20784;-66
2021/07/25 07:34:37;;;;;;;15.83;14.50;;;;;;;32.24;36.46;100506.31;5041430;28;20450;-66
2021/07/25 07:37:04;;;;;;;16.20;14.77;;;;;;;30.90;38.52;100517.28;5041035;28;20178;-66
2021/07/25 07:39:29;;;;;;;14.87;13.67;;;;;;;31.79;36.77;100511.06;5060706;28;20185;-68
2021/07/25 07:41:54;;;;;;;14.60;13.50;;;;;;;33.60;33.86;100500.75;5061327;28;20419;-67
2021/07/25 07:44:20;;;;;;;15.47;14.27;;;;;;;33.17;33.76;100511.72;5060886;28;20216;-68
2021/07/25 07:46:45;;;;;;;15.23;13.80;;;;;;;33.02;34.61;100511.25;5060783;28;20244;-68
2021/07/25 07:49:10;;;;;;;15.30;14.10;;;;;;;34.95;31.08;100516.09;5061064;28;20448;-67
2021/07/25 07:51:36;;;;;;;14.63;13.53;;;;;;;32.87;34.86;100510.78;5060679;28;20193;-67
2021/07/25 07:54:01;;;;;;;14.50;13.40;;;;;;;34.57;31.47;100506.13;5060514;28;20170;-67
2021/07/25 07:56:26;;;;;;;14.50;13.40;;;;;;;33.03;34.12;100504.00;5061470;28;20445;-67
2021/07/25 07:58:52;;;;;;;12.60;11.70;;;;;;;33.84;32.82;100508.47;5060861;28;20256;-68
2021/07/25 08:01:17;;;;;;;13.00;12.10;;;;;;;35.61;29.83;100506.03;5060489;28;20185;-68
2021/07/25 08:03:42;;;;;;;13.37;12.37;;;;;;;33.57;33.28;100512.69;5061009;28;20512;-68
2021/07/25 08:06:08;;;;;;;13.73;12.73;;;;;;;33.99;33.02;100512.47;5060483;28;20212;-67
2021/07/25 08:08:33;;;;;;;13.30;12.37;;;;;;;34.62;32.07;100516.47;5060433;28;20206;-67
2021/07/25 08:10:58;;;;;;;14.00;13.00;;;;;;;32.47;34.64;100526.91;5060915;28;20432;-67
2021/07/25 08:13:24;;;;;;;14.07;12.97;;;;;;;33.15;33.99;100519.13;5053726;28;20226;-67
2021/07/25 08:15:49;;;;;;;13.10;12.10;;;;;;;34.44;32.07;100521.81;5042524;28;20189;-68
2021/07/25 08:18:14;;;;;;;14.20;13.00;;;;;;;33.84;33.03;100530.97;5060711;28;20481;-67
2021/07/25 08:20:40;;;;;;;12.93;12.00;;;;;;;32.69;35.23;100539.34;5052617;28;20174;-67
2021/07/25 08:23:05;;;;;;;13.10;12.10;;;;;;;34.75;31.83;100532.41;5039918;28;20474;-66
2021/07/25 08:25:30;;;;;;;13.00;12.10;;;;;;;34.58;32.28;100532.16;5040555;28;20193;-67
2021/07/25 08:27:55;;;;;;;12.50;11.60;;;;;;;32.69;34.44;100542.06;5040263;28;20201;-66
2021/07/25 08:30:21;;;;;;;13.83;12.60;;;;;;;32.87;33.85;100534.25;5055774;28;20185;-66
2021/07/25 08:32:46;;;;;;;13.17;12.17;;;;;;;35.39;30.21;100524.44;5060208;28;20267;-67
2021/07/25 08:35:11;;;;;;;12.43;11.53;;;;;;;34.42;31.76;100531.91;5059994;28;20169;-68
2021/07/25 08:37:37;;;;;;;13.13;12.13;;;;;;;33.81;33.00;100535.81;5059825;28;20192;-68
2021/07/25 08:40:03;;;;;;;13.50;12.43;;;;;;;35.04;30.33;100526.03;5060503;28;20178;-67
2021/07/25 08:42:33;;;;;;;13.00;12.10;;;;;;;35.89;29.45;100528.53;5058874;28;20173;-66
2021/07/25 08:44:59;;;;;;;12.30;11.40;;;;;;;36.60;27.96;100525.84;5059627;28;20463;-66
2021/07/25 08:47:30;;;;;;;13.43;12.03;;;;;;;35.74;29.34;100523.59;5059897;28;20821;-66
2021/07/25 08:50:04;;;;;;;12.80;11.80;;;;;;;35.32;30.50;100528.75;5059841;28;20173;-69
2021/07/25 08:52:31;;;;;;;12.90;11.90;;;;;;;34.65;30.83;100534.28;5059457;28;20431;-67
2021/07/25 08:54:58;;;;;;;12.40;11.50;;;;;;;35.86;29.54;100526.13;5059564;28;20413;-66
2021/07/25 08:57:26;;;;;;;12.00;11.00;;;;;;;35.83;29.88;100524.59;5059574;28;20416;-67
2021/07/25 08:59:53;;;;;;;12.80;11.90;;;;;;;33.35;33.85;100524.59;5059779;28;20412;-67
2021/07/25 09:02:28;;;;;;;12.40;11.40;;;;;;;33.11;34.34;100525.81;5059482;28;20408;-68
2021/07/25 09:04:54;;;;;;;12.20;11.20;;;;;;;35.63;30.51;100521.13;5058594;28;20463;-68
2021/07/25 09:07:22;;;;;;;12.50;11.60;;;;;;;33.08;34.59;100524.22;5059077;28;20434;-68
2021/07/25 09:09:53;;;;;;;11.50;10.70;;;;;;;36.00;29.17;100522.84;5059354;28;20412;-68
2021/07/25 09:12:19;;;;;;;11.93;10.93;;;;;;;35.85;29.95;100527.97;5059712;28;20503;-68
2021/07/25 09:15:12;;;;;;;12.03;11.20;;;;;;;34.69;31.97;100520.28;5059115;28;20412;-69
2021/07/25 09:17:38;;;;;;;14.03;13.00;;;;;;;33.12;34.07;100530.19;5058513;28;20419;-67
2021/07/25 09:20:40;;;;;;;13.70;12.67;;;;;;;34.27;32.61;100519.81;5055643;28;20415;-67
2021/07/25 09:23:19;;;;;;;13.80;12.70;;;;;;;33.05;34.40;100529.03;5030176;28;20467;-68
2021/07/25 09:25:54;;;;;;;13.10;12.13;;;;;;;34.80;31.28;100516.53;5039011;28;20452;-67
2021/07/25 09:28:29;;;;;;;13.83;12.73;;;;;;;31.93;35.79;100526.91;5039059;28;20439;-68
2021/07/25 09:30:54;;;;;;;13.30;12.30;;;;;;;34.90;31.54;100514.69;5039109;28;20455;-68
2021/07/25 09:33:31;;;;;;;13.40;12.40;;;;;;;33.39;34.15;100524.19;5037805;28;20459;-67
2021/07/25 09:36:12;;;;;;;12.67;11.57;;;;;;;35.32;29.74;100526.03;5038894;28;20172;-69
2021/07/25 09:38:38;;;;;;;12.27;11.37;;;;;;;36.06;29.23;100519.53;5039284;28;20854;-67
2021/07/25 09:41:15;;;;;;;12.70;11.47;;;;;;;35.56;30.01;100522.75;5038879;28;20412;-67
2021/07/25 09:43:40;;;;;;;13.10;12.00;;;;;;;34.48;31.66;100522.34;5038558;28;20408;-67
2021/07/25 09:46:06;;;;;;;12.27;11.37;;;;;;;34.29;32.26;100517.81;5045552;28;20486;-67
2021/07/25 09:48:36;;;;;;;12.20;11.30;;;;;;;35.85;29.59;100517.13;5058648;28;20169;-67
2021/07/25 09:51:03;;;;;;;11.70;10.90;;;;;;;35.23;30.71;100523.22;5059011;28;20589;-67
2021/07/25 09:53:44;;;;;;;12.33;11.13;;;;;;;32.39;34.37;100514.06;5058613;28;20817;-66
2021/07/25 09:56:14;;;;;;;11.27;10.47;;;;;;;32.73;33.68;100520.13;5058542;28;20412;-67
2021/07/25 09:58:39;;;;;;;10.97;10.17;;;;;;;34.14;31.99;100514.72;5058409;28;20514;-67
2021/07/25 10:01:05;;;;;;;10.93;10.03;;;;;;;35.44;29.83;100515.84;5057438;28;20497;-67
2021/07/25 10:03:33;;;;;;;14.40;12.93;;;;;;;34.40;32.48;100510.41;5058442;28;20251;-66
2021/07/25 10:06:19;;;;;;;11.00;10.20;;;;;;;34.41;31.54;100516.69;5058194;28;20253;-68
2021/07/25 10:08:45;;;;;;;12.43;11.40;;;;;;;33.99;31.86;100517.88;5054605;28;20474;-68
2021/07/25 10:11:17;;;;;;;11.60;10.80;;;;;;;34.42;30.89;100512.97;5058265;28;20506;-68
2021/07/25 10:13:42;;;;;;;13.27;11.93;;;;;;;35.66;29.04;100507.25;5057969;28;20456;-66
2021/07/25 10:16:08;;;;;;;12.10;11.10;;;;;;;35.57;29.48;100519.03;5058316;28;20397;-67
2021/07/25 10:18:34;;;;;;;11.10;10.30;;;;;;;33.66;31.79;100513.72;5057295;28;20180;-67
2021/07/25 10:21:00;;;;;;;11.63;10.70;;;;;;;34.96;30.22;100505.09;5057887;28;20176;-66
2021/07/25 10:23:36;;;;;;;11.27;10.47;;;;;;;33.71;32.16;100519.53;5057770;28;20247;-65
2021/07/25 10:26:03;;;;;;;13.20;12.10;;;;;;;36.08;28.54;100512.06;5057104;28;20485;-66
2021/07/25 10:28:32;;;;;;;13.77;12.77;;;;;;;32.94;33.59;100518.34;5058136;28;20698;-66
2021/07/25 10:31:02;;;;;;;16.30;15.07;;;;;;;33.41;32.87;100519.50;5057077;28;20466;-66
2021/07/25 10:33:30;;;;;;;11.77;10.93;;;;;;;32.55;34.53;100514.44;5057719;28;20424;-66
2021/07/25 10:35:56;;;;;;;13.83;12.83;;;;;;;30.56;39.30;100528.88;5057111;28;20847;-66
2021/07/25 10:38:22;;;;;;;17.70;16.30;;;;;;;32.50;34.94;100510.44;5057865;28;20503;-66
2021/07/25 10:40:47;;;;;;;13.03;11.93;;;;;;;30.35;39.26;100527.81;5058054;28;20717;-67
2021/07/25 10:43:15;;;;;;;12.37;11.37;;;;;;;32.09;36.50;100512.97;5056442;28;20176;-67
2021/07/25 10:45:40;;;;;;;12.73;11.63;;;;;;;32.91;34.52;100517.63;5057422;28;20276;-66
2021/07/25 10:48:32;;;;;;;12.70;11.57;;;;;;;33.65;33.19;100515.56;5058003;28;20458;-67
2021/07/25 10:51:10;;;;;;;11.80;10.90;;;;;;;32.28;35.88;100519.53;5054798;28;20232;-65
2021/07/25 10:53:35;;;;;;;12.93;11.60;;;;;;;29.64;40.04;100528.63;5057541;28;20415;-66
2021/07/25 10:56:00;;;;;;;12.23;11.33;;;;;;;31.21;37.41;100531.00;5057545;28;20415;-66
2021/07/25 10:58:27;;;;;;;10.83;10.03;;;;;;;31.33;37.75;100519.22;5057450;28;20184;-66
2021/07/25 11:00:54;;;;;;;11.53;10.63;;;;;;;31.78;35.84;100502.09;5057898;28;20166;-65
2021/07/25 11:03:25;;;;;;;11.97;11.07;;;;;;;31.22;37.43;100514.72;5057285;28;20420;-65
2021/07/25 11:06:05;;;;;;;11.97;10.70;;;;;;;29.81;39.06;100513.94;5057360;28;20466;-66
2021/07/25 11:08:41;;;;;;;12.43;11.33;;;;;;;31.98;35.47;100511.19;5057444;28;20507;-65
2021/07/25 11:11:25;;;;;;;12.00;11.00;;;;;;;32.41;34.79;100504.84;5057414;28;20711;-66